Time;durP1;ratioP1;P1;durP2;ratioP2;P2;SDS_P1;SDS_P2;PMS_P1;PMS_P2;Temp;Humidity;BMP_temperature;BMP_pressure;BME280_temperature;BME280_humidity;BME280_pressure;Samples;Min_cycle;Max_cycle;Signal;HPM_P1;HPM_P2
2022/10/01 00:01:00;;;;;;;6.32;5.38;;;;;;;18.73;90.74;99699.34;5131636;27;20196;-62
2022/10/01 00:03:29;;;;;;;8.40;5.05;;;;;;;18.84;90.61;99710.06;5131691;27;20220;-62
2022/10/01 00:06:00;;;;;;;7.20;5.40;;;;;;;18.88;90.21;99696.69;5131652;27;20285;-61
2022/10/01 00:08:27;;;;;;;6.00;5.50;;;;;;;18.73;90.26;99704.59;5131595;27;20235;-55
2022/10/01 00:10:54;;;;;;;5.65;5.15;;;;;;;18.56;91.03;99696.81;5131910;27;20232;-57
2022/10/01 00:13:24;;;;;;;9.43;5.35;;;;;;;18.60;91.44;99700.13;5131697;27;20196;-56
2022/10/01 00:15:52;;;;;;;5.82;5.32;;;;;;;18.61;91.67;99700.06;5130485;27;20197;-61
2022/10/01 00:18:19;;;;;;;6.28;5.57;;;;;;;18.51;92.46;99706.72;5131374;27;20194;-60
2022/10/01 00:20:46;;;;;;;5.32;4.85;;;;;;;18.38;92.68;99704.00;5131485;27;20204;-63
2022/10/01 00:23:14;;;;;;;9.63;5.45;;;;;;;18.24;93.03;99682.91;5131267;27;20673;-61
2022/10/01 00:25:42;;;;;;;6.07;5.25;;;;;;;18.30;93.53;99706.19;5131740;27;20221;-56
2022/10/01 00:28:10;;;;;;;6.00;5.60;;;;;;;18.29;93.94;99704.50;5131193;27;20607;-61
2022/10/01 00:30:37;;;;;;;7.88;5.13;;;;;;;18.41;93.03;99700.31;5131255;27;20221;-61
2022/10/01 00:33:06;;;;;;;6.22;5.57;;;;;;;18.39;93.26;99707.47;5131239;27;20194;-56
2022/10/01 00:35:32;;;;;;;5.97;5.40;;;;;;;18.33;93.36;99706.03;5131032;27;20200;-56
2022/10/01 00:37:59;;;;;;;8.68;5.93;;;;;;;18.27;93.73;99689.78;5130702;27;20194;-62
2022/10/01 00:40:26;;;;;;;5.77;5.33;;;;;;;18.18;93.80;99701.63;5131075;27;20310;-60
2022/10/01 00:42:53;;;;;;;7.75;5.35;;;;;;;18.12;94.76;99702.84;5131106;27;20196;-55
2022/10/01 00:45:20;;;;;;;6.83;5.47;;;;;;;18.06;94.91;99699.69;5131076;27;20700;-56
2022/10/01 00:47:50;;;;;;;6.53;5.80;;;;;;;18.00;95.07;99685.16;5131086;27;20275;-55
2022/10/01 00:50:25;;;;;;;5.40;4.97;;;;;;;18.02;94.95;99691.16;5130838;27;20213;-61
2022/10/01 00:52:55;;;;;;;10.40;5.55;;;;;;;18.11;94.97;99688.00;5131146;27;20741;-61
2022/10/01 00:55:27;;;;;;;6.63;6.13;;;;;;;18.07;95.13;99686.47;5131092;27;20196;-61
2022/10/01 00:57:55;;;;;;;6.20;5.60;;;;;;;18.18;95.08;99679.75;5130893;27;20208;-61
2022/10/01 01:00:23;;;;;;;5.65;5.20;;;;;;;18.12;94.91;99671.31;5130712;27;20212;-62
2022/10/01 01:02:50;;;;;;;6.68;6.03;;;;;;;18.05;95.77;99680.50;5130657;27;20197;-60
2022/10/01 01:05:19;;;;;;;8.33;6.03;;;;;;;17.95;96.44;99689.78;5130540;27;20201;-61
2022/10/01 01:07:51;;;;;;;6.53;5.83;;;;;;;17.85;97.49;99699.13;5130872;27;20665;-60
2022/10/01 01:10:26;;;;;;;6.77;6.13;;;;;;;17.81;97.80;99702.88;5130710;27;20224;-61
2022/10/01 01:13:08;;;;;;;6.10;5.70;;;;;;;17.76;98.76;99710.16;5130683;27;20276;-61
2022/10/01 01:15:42;;;;;;;6.40;5.80;;;;;;;17.73;98.72;99702.44;5130458;27;20313;-56
2022/10/01 01:18:13;;;;;;;7.67;6.50;;;;;;;17.69;98.91;99699.16;5130362;27;20194;-61
2022/10/01 01:20:54;;;;;;;5.97;5.50;;;;;;;17.68;99.17;99692.19;5130646;27;20698;-62
2022/10/01 01:24:20;;;;;;;7.37;5.73;;;;;;;17.69;99.15;99688.66;5130378;27;20677;-61
2022/10/01 01:27:00;;;;;;;7.50;6.00;;;;;;;17.66;99.27;99677.47;5047206;28;20201;-61
2022/10/01 01:29:34;;;;;;;5.60;5.20;;;;;;;17.65;99.93;99691.50;5130356;28;20204;-61
2022/10/01 01:32:07;;;;;;;8.90;5.77;;;;;;;17.58;100.00;99695.38;5130192;28;20197;-56
2022/10/01 01:34:37;;;;;;;7.37;5.20;;;;;;;17.49;100.00;99695.88;5130344;28;20211;-56
2022/10/01 01:37:10;;;;;;;6.00;5.50;;;;;;;17.45;100.00;99689.94;5130243;28;20200;-56
2022/10/01 01:39:41;;;;;;;7.87;6.07;;;;;;;17.48;100.00;99684.53;5130320;28;20612;-56
2022/10/01 01:42:14;;;;;;;7.37;6.50;;;;;;;17.58;100.00;99693.59;5130093;28;20198;-56
2022/10/01 01:44:47;;;;;;;7.50;5.70;;;;;;;17.53;100.00;99703.50;5130193;28;20289;-61
2022/10/01 01:47:14;;;;;;;6.70;6.10;;;;;;;17.48;100.00;99715.19;5130278;28;20262;-61
2022/10/01 01:49:42;;;;;;;8.43;5.60;;;;;;;17.39;100.00;99709.47;5131790;27;20280;-56
2022/10/01 01:52:14;;;;;;;6.03;5.40;;;;;;;17.47;100.00;99714.34;5134153;27;20190;-56
2022/10/01 01:54:43;;;;;;;6.93;6.17;;;;;;;17.44;100.00;99704.00;5134335;27;20280;-55
2022/10/01 01:57:11;;;;;;;8.70;6.23;;;;;;;17.60;100.00;99719.78;5134113;27;20189;-56
2022/10/01 01:59:40;;;;;;;7.10;6.50;;;;;;;17.65;100.00;99712.50;5134313;27;20633;-55
2022/10/01 02:02:12;;;;;;;8.53;6.10;;;;;;;17.70;100.00;99702.63;5134251;27;20588;-56
2022/10/01 02:04:43;;;;;;;8.90;6.60;;;;;;;17.69;99.48;99704.41;5133961;27;20198;-56
2022/10/01 02:07:31;;;;;;;6.77;6.17;;;;;;;17.65;99.98;99704.63;5134084;27;20197;-56
2022/10/01 02:10:10;;;;;;;6.97;5.60;;;;;;;17.51;100.00;99707.97;5112616;27;20281;-55
2022/10/01 02:12:48;;;;;;;6.57;5.90;;;;;;;17.40;100.00;99713.81;5133956;27;20198;-55
2022/10/01 02:15:24;;;;;;;5.83;5.43;;;;;;;17.31;100.00;99723.94;5133919;27;20201;-56
2022/10/01 02:17:59;;;;;;;8.60;5.70;;;;;;;17.31;100.00;99719.53;5133896;27;20198;-55
2022/10/01 02:20:31;;;;;;;6.10;5.60;;;;;;;17.28;100.00;99709.19;5133978;27;20218;-56
2022/10/01 02:23:03;;;;;;;6.23;5.80;;;;;;;17.35;100.00;99713.22;5133629;27;20202;-56
2022/10/01 02:25:36;;;;;;;6.67;6.00;;;;;;;17.28;100.00;99719.69;5133736;27;20292;-56
2022/10/01 02:28:09;;;;;;;5.77;5.37;;;;;;;17.23;100.00;99726.97;5133754;27;20222;-56
2022/10/01 02:30:38;;;;;;;7.30;5.87;;;;;;;17.06;100.00;99704.25;5133936;27;20236;-56
2022/10/01 02:33:09;;;;;;;6.90;6.00;;;;;;;17.06;100.00;99706.00;5133481;27;20194;-56
2022/10/01 02:35:37;;;;;;;10.90;5.90;;;;;;;17.13;100.00;99720.53;5133605;27;20234;-55
2022/10/01 02:38:07;;;;;;;6.67;6.07;;;;;;;17.15;100.00;99728.31;5133329;27;20229;-61
2022/10/01 02:40:38;;;;;;;6.10;5.60;;;;;;;17.13;100.00;99733.63;5133516;27;20200;-60
2022/10/01 02:43:10;;;;;;;6.20;5.60;;;;;;;17.10;100.00;99736.41;5133290;27;20642;-59
2022/10/01 02:45:40;;;;;;;6.47;5.47;;;;;;;17.09;100.00;99739.09;5133225;27;20193;-60
2022/10/01 02:48:11;;;;;;;6.13;5.57;;;;;;;17.15;100.00;99734.41;5133251;27;20733;-62
2022/10/01 02:50:46;;;;;;;5.93;5.50;;;;;;;17.18;100.00;99734.22;5133373;27;20713;-61
2022/10/01 02:53:20;;;;;;;8.07;5.67;;;;;;;17.19;100.00;99741.19;5133020;27;20186;-62
2022/10/01 02:55:49;;;;;;;5.90;5.43;;;;;;;17.24;100.00;99743.56;5133152;27;20204;-61
2022/10/01 02:58:17;;;;;;;6.87;5.60;;;;;;;17.21;100.00;99733.22;5132964;27;20208;-56
2022/10/01 03:00:44;;;;;;;7.73;5.97;;;;;;;17.19;100.00;99741.19;5132578;27;20194;-56
2022/10/01 03:03:12;;;;;;;8.53;6.03;;;;;;;17.23;100.00;99728.75;5132984;27;20197;-55
2022/10/01 03:05:39;;;;;;;6.70;6.10;;;;;;;17.32;100.00;99742.22;5132936;27;20197;-59
2022/10/01 03:08:06;;;;;;;6.10;5.50;;;;;;;17.35;100.00;99749.09;5132730;27;20202;-57
2022/10/01 03:10:33;;;;;;;8.87;6.33;;;;;;;17.43;100.00;99753.00;5132588;27;20223;-61
2022/10/01 03:13:00;;;;;;;7.53;6.27;;;;;;;17.41;100.00;99748.75;5132835;27;20197;-61
2022/10/01 03:15:28;;;;;;;8.33;6.17;;;;;;;17.48;100.00;99751.94;5132917;27;20194;-63
2022/10/01 03:17:55;;;;;;;8.47;6.63;;;;;;;17.54;100.00;99754.22;5132764;27;20198;-62
2022/10/01 03:20:25;;;;;;;6.43;5.83;;;;;;;17.56;99.88;99754.97;5132341;27;20190;-61
2022/10/01 03:22:51;;;;;;;7.97;5.90;;;;;;;17.55;99.46;99755.91;5132863;27;20193;-60
2022/10/01 03:25:19;;;;;;;6.40;5.80;;;;;;;17.56;99.36;99750.56;5132627;27;20194;-59
2022/10/01 03:27:46;;;;;;;6.63;6.00;;;;;;;17.58;98.85;99763.63;5132498;27;20669;-59
2022/10/01 03:30:13;;;;;;;8.60;6.60;;;;;;;17.58;98.78;99758.38;5132207;27;20206;-55
2022/10/01 03:32:40;;;;;;;9.50;6.40;;;;;;;17.51;98.18;99742.09;5132394;27;20197;-55
2022/10/01 03:35:08;;;;;;;6.87;6.27;;;;;;;17.51;98.51;99742.09;5132010;27;20218;-56
2022/10/01 03:37:36;;;;;;;9.10;6.37;;;;;;;17.42;98.68;99738.19;5132301;27;20297;-55
2022/10/01 03:40:04;;;;;;;6.83;6.23;;;;;;;17.33;98.73;99736.06;5132387;27;20198;-56
2022/10/01 03:42:31;;;;;;;11.70;6.40;;;;;;;17.38;98.45;99741.88;5132218;27;20229;-56
2022/10/01 03:44:57;;;;;;;11.07;6.43;;;;;;;17.48;97.79;99755.41;5132443;27;20704;-56
2022/10/01 03:47:25;;;;;;;6.80;6.20;;;;;;;17.41;98.30;99748.75;5131873;27;20196;-55
2022/10/01 03:49:51;;;;;;;7.03;6.43;;;;;;;17.26;100.00;99747.81;5131868;27;20205;-55
2022/10/01 03:52:19;;;;;;;11.03;6.40;;;;;;;17.26;100.00;99763.56;5131737;27;20232;-61
2022/10/01 03:54:47;;;;;;;9.90;6.87;;;;;;;17.29;100.00;99771.25;5132134;27;20565;-56
2022/10/01 03:57:14;;;;;;;7.50;6.80;;;;;;;17.26;100.00;99765.34;5131866;27;20240;-57
2022/10/01 03:59:41;;;;;;;7.00;6.23;;;;;;;17.21;100.00;99760.31;5131886;27;20691;-59
2022/10/01 04:02:08;;;;;;;7.50;6.77;;;;;;;17.28;99.71;99769.53;5131603;27;20413;-61
2022/10/01 04:04:35;;;;;;;8.17;7.37;;;;;;;17.19;100.00;99775.28;5131722;27;20194;-56
2022/10/01 04:07:02;;;;;;;7.90;7.10;;;;;;;17.09;100.00;99779.31;5132066;27;20247;-56
2022/10/01 04:09:29;;;;;;;7.90;7.20;;;;;;;17.08;100.00;99792.50;5131785;27;20202;-56
2022/10/01 04:11:57;;;;;;;8.00;6.60;;;;;;;17.11;100.00;99800.22;5130715;27;20225;-56
2022/10/01 04:14:24;;;;;;;9.20;7.00;;;;;;;17.10;100.00;99796.72;5131493;27;20586;-55
2022/10/01 04:16:51;;;;;;;6.93;6.40;;;;;;;17.07;100.00;99773.28;5131358;27;20251;-55
2022/10/01 04:19:20;;;;;;;11.93;7.33;;;;;;;17.17;100.00;99790.25;5131478;27;20785;-56
2022/10/01 04:21:46;;;;;;;7.07;6.27;;;;;;;17.21;100.00;99786.53;5131644;27;20558;-56
2022/10/01 04:24:13;;;;;;;9.07;6.97;;;;;;;17.32;100.00;99796.47;5131409;27;20746;-56
2022/10/01 04:26:40;;;;;;;13.60;6.87;;;;;;;17.34;100.00;99794.63;5131280;27;20202;-56
2022/10/01 04:29:09;;;;;;;6.80;6.20;;;;;;;17.34;100.00;99805.97;5130885;27;20233;-60
2022/10/01 04:31:35;;;;;;;12.40;6.67;;;;;;;17.40;100.00;99807.41;5131420;27;20225;-55
2022/10/01 04:34:03;;;;;;;7.37;6.73;;;;;;;17.53;100.00;99803.22;5131567;27;20202;-60
2022/10/01 04:36:30;;;;;;;7.43;6.77;;;;;;;17.60;100.00;99798.53;5131300;27;20197;-55
2022/10/01 04:38:58;;;;;;;10.30;7.30;;;;;;;17.59;99.62;99808.16;5131307;27;20697;-55
2022/10/01 04:41:25;;;;;;;11.40;7.07;;;;;;;17.57;100.00;99810.03;5121202;27;20225;-56
2022/10/01 04:43:52;;;;;;;8.70;6.57;;;;;;;17.63;99.95;99804.47;5109141;28;20223;-56
2022/10/01 04:46:20;;;;;;;11.07;6.80;;;;;;;17.73;99.58;99812.69;5112866;27;20305;-56
2022/10/01 04:48:48;;;;;;;7.70;6.30;;;;;;;17.67;100.00;99810.41;5130074;27;20296;-56
2022/10/01 04:51:15;;;;;;;6.57;6.07;;;;;;;17.70;99.51;99807.63;5130218;27;20236;-61
2022/10/01 04:53:42;;;;;;;10.27;6.93;;;;;;;17.75;98.39;99813.47;5130260;27;20224;-61
2022/10/01 04:56:09;;;;;;;6.80;6.20;;;;;;;17.81;97.73;99822.81;5129506;27;20629;-60
2022/10/01 04:58:36;;;;;;;11.57;6.77;;;;;;;17.91;96.85;99811.72;5130558;27;20194;-61
2022/10/01 05:01:03;;;;;;;11.20;7.10;;;;;;;18.05;95.54;99817.09;5129905;27;20202;-61
2022/10/01 05:03:31;;;;;;;7.70;6.97;;;;;;;18.14;94.70;99805.22;5130483;27;20201;-60
2022/10/01 05:05:58;;;;;;;8.73;5.70;;;;;;;18.38;93.41;99789.88;5130628;27;20200;-60
2022/10/01 05:08:26;;;;;;;8.38;6.20;;;;;;;18.61;91.55;99780.72;5130601;27;20528;-62
2022/10/01 05:10:53;;;;;;;9.75;5.97;;;;;;;18.84;89.71;99777.59;5130940;27;20673;-61
2022/10/01 05:13:20;;;;;;;10.63;5.35;;;;;;;19.06;88.09;99785.91;5130540;27;20204;-60
2022/10/01 05:15:50;;;;;;;7.13;5.82;;;;;;;19.48;85.43;99795.66;5130767;27;20684;-61
2022/10/01 05:18:17;;;;;;;6.68;6.05;;;;;;;20.42;80.52;99788.88;5130398;27;20305;-61
2022/10/01 05:20:46;;;;;;;6.40;5.82;;;;;;;21.17;74.40;99784.72;5130314;27;20284;-61
2022/10/01 05:23:13;;;;;;;6.25;5.10;;;;;;;21.05;74.58;99784.72;5130242;27;20276;-61
2022/10/01 05:25:40;;;;;;;5.90;5.40;;;;;;;21.30;73.76;99790.91;5130304;27;20742;-61
2022/10/01 05:28:06;;;;;;;6.28;5.35;;;;;;;21.96;71.08;99796.84;5130348;27;20226;-61
2022/10/01 05:30:34;;;;;;;10.00;5.95;;;;;;;22.37;67.38;99791.25;5130350;28;20198;-60
2022/10/01 05:33:03;;;;;;;6.63;5.40;;;;;;;23.43;63.68;99785.84;5130273;28;20237;-60
2022/10/01 05:35:30;;;;;;;6.13;5.63;;;;;;;25.12;56.48;99798.69;5130238;28;20198;-60
2022/10/01 05:38:00;;;;;;;10.20;5.40;;;;;;;25.86;53.23;99802.03;5130171;28;20194;-60
2022/10/01 05:40:28;;;;;;;6.00;5.40;;;;;;;26.64;50.51;99809.22;5130437;28;20584;-59
2022/10/01 05:42:57;;;;;;;6.55;4.82;;;;;;;28.08;46.88;99816.13;5129964;28;20304;-57
2022/10/01 05:45:24;;;;;;;7.38;4.93;;;;;;;29.49;42.80;99819.84;5128939;28;20205;-57
2022/10/01 05:47:58;;;;;;;6.60;5.47;;;;;;;29.76;41.26;99826.88;5126204;28;20593;-57
2022/10/01 05:50:26;;;;;;;10.82;5.72;;;;;;;30.07;40.84;99832.56;5128720;28;20190;-57
2022/10/01 05:52:54;;;;;;;6.75;6.15;;;;;;;30.20;40.41;99838.31;5128864;28;20591;-58
2022/10/01 05:55:23;;;;;;;7.45;5.45;;;;;;;29.19;41.94;99849.69;5126352;28;20198;-59
2022/10/01 05:57:57;;;;;;;8.00;6.15;;;;;;;27.13;46.23;99846.56;5128725;28;20201;-58
2022/10/01 06:00:27;;;;;;;13.77;6.97;;;;;;;25.73;50.59;99833.34;5128399;28;20190;-59
2022/10/01 06:02:55;;;;;;;9.65;6.38;;;;;;;24.75;53.99;99818.63;5129266;28;20196;-57
2022/10/01 06:05:22;;;;;;;14.73;6.72;;;;;;;24.03;57.13;99815.66;5126443;28;20218;-57
2022/10/01 06:07:50;;;;;;;7.22;6.55;;;;;;;24.73;56.16;99804.63;5108552;28;20221;-56
2022/10/01 06:10:18;;;;;;;11.38;6.38;;;;;;;26.86;49.67;99821.47;5109061;28;20248;-56
2022/10/01 06:12:47;;;;;;;6.63;6.00;;;;;;;29.09;43.65;99835.56;5108791;28;20234;-57
2022/10/01 06:15:14;;;;;;;6.53;5.82;;;;;;;29.61;41.58;99853.38;5108530;28;20195;-58
2022/10/01 06:17:44;;;;;;;5.95;5.47;;;;;;;30.01;40.53;99837.72;5108146;28;20207;-58
2022/10/01 06:20:15;;;;;;;7.35;6.38;;;;;;;30.30;39.34;99848.88;5108956;28;20293;-57
2022/10/01 06:22:43;;;;;;;9.00;6.50;;;;;;;30.42;39.21;99868.16;5109309;28;20195;-57
2022/10/01 06:25:13;;;;;;;8.65;6.93;;;;;;;31.19;37.53;99864.31;5109019;28;20232;-57
2022/10/01 06:27:41;;;;;;;11.93;6.40;;;;;;;32.31;35.90;99846.31;5122546;28;20687;-57
2022/10/01 06:30:10;;;;;;;10.90;5.63;;;;;;;33.66;33.65;99856.41;5129576;28;20190;-57
2022/10/01 06:32:38;;;;;;;9.38;5.50;;;;;;;35.01;31.43;99873.91;5129665;28;20217;-58
2022/10/01 06:35:06;;;;;;;12.00;4.93;;;;;;;35.52;30.25;99866.50;5130119;27;20190;-57
2022/10/01 06:37:37;;;;;;;9.70;4.45;;;;;;;36.09;29.33;99869.97;5133369;27;20254;-57
2022/10/01 06:40:06;;;;;;;5.70;4.18;;;;;;;36.00;29.28;99864.75;5133319;27;20190;-57
2022/10/01 06:42:33;;;;;;;8.55;4.78;;;;;;;35.02;30.18;99866.63;5131768;27;20250;-58
2022/10/01 06:45:00;;;;;;;10.13;4.63;;;;;;;33.21;32.48;99856.47;5129960;27;20197;-57
2022/10/01 06:47:28;;;;;;;8.25;4.65;;;;;;;30.87;36.12;99852.56;5132108;27;20654;-57
2022/10/01 06:49:55;;;;;;;11.90;4.68;;;;;;;29.18;39.54;99848.00;5131830;27;20196;-58
2022/10/01 06:55:02;;;;;;;10.07;5.40;;;;;;;27.64;43.67;99838.22;5115407;27;20189;-58
2022/10/01 06:57:29;;;;;;;6.97;5.13;;;;;;;27.83;44.04;99839.00;5133193;27;20672;-58
2022/10/01 06:59:57;;;;;;;5.85;5.25;;;;;;;29.70;40.72;99851.56;5132464;27;20269;-57
2022/10/01 07:02:27;;;;;;;7.07;5.00;;;;;;;32.05;36.54;99846.59;5133040;27;20194;-61
2022/10/01 07:04:57;;;;;;;7.20;4.53;;;;;;;33.11;33.55;99851.34;5133359;27;20617;-62
2022/10/01 07:07:25;;;;;;;8.32;5.10;;;;;;;34.06;32.25;99862.38;5133162;27;20660;-61
2022/10/01 07:09:52;;;;;;;11.52;4.57;;;;;;;35.43;30.48;99866.84;5132988;27;20190;-61
2022/10/01 07:12:19;;;;;;;11.27;5.00;;;;;;;35.08;31.07;99880.22;5132869;27;20218;-56
2022/10/01 07:14:46;;;;;;;14.27;5.15;;;;;;;35.08;30.73;99869.41;5133286;27;20198;-59
2022/10/01 07:17:13;;;;;;;8.77;5.18;;;;;;;33.93;32.12;99881.06;5132623;27;20200;-59
2022/10/01 07:19:40;;;;;;;11.25;5.35;;;;;;;32.98;34.08;99884.22;5132881;27;20197;-59
2022/10/01 07:22:08;;;;;;;8.32;4.85;;;;;;;31.28;36.49;99884.75;5133033;27;20271;-59
2022/10/01 07:24:35;;;;;;;6.07;5.38;;;;;;;29.90;39.27;99868.25;5132471;27;20198;-57
2022/10/01 07:27:02;;;;;;;6.30;5.60;;;;;;;29.15;40.73;99867.88;5132644;27;20190;-58
2022/10/01 07:29:30;;;;;;;6.25;5.25;;;;;;;28.60;42.29;99859.13;5132270;27;20202;-60
2022/10/01 07:31:59;;;;;;;5.70;5.30;;;;;;;28.25;43.25;99856.38;5132312;27;20214;-58
2022/10/01 07:34:26;;;;;;;8.30;5.68;;;;;;;27.68;43.98;99852.94;5132357;27;20547;-58
2022/10/01 07:36:55;;;;;;;5.60;5.10;;;;;;;27.61;44.64;99857.19;5131927;27;20205;-58
2022/10/01 07:39:23;;;;;;;5.85;4.57;;;;;;;27.35;45.05;99854.25;5131941;27;20761;-57
2022/10/01 07:41:50;;;;;;;10.15;4.80;;;;;;;27.32;45.03;99847.38;5130683;27;20196;-56
2022/10/01 07:44:17;;;;;;;7.57;4.43;;;;;;;27.16;45.15;99819.63;5130472;27;20194;-57
2022/10/01 07:46:45;;;;;;;7.78;5.72;;;;;;;27.08;44.84;99844.34;5131595;27;20209;-57
2022/10/01 07:49:12;;;;;;;10.90;5.95;;;;;;;26.90;45.45;99843.31;5131931;27;20294;-58
2022/10/01 07:51:39;;;;;;;9.30;5.22;;;;;;;26.64;46.45;99846.50;5130668;27;20198;-58
2022/10/01 07:54:06;;;;;;;7.15;6.53;;;;;;;26.77;46.56;99847.09;5131791;27;20205;-58
2022/10/01 07:56:34;;;;;;;6.20;5.22;;;;;;;26.92;46.49;99836.03;5131432;27;20200;-57
2022/10/01 07:59:01;;;;;;;8.55;6.38;;;;;;;27.03;45.71;99835.91;5131400;27;20201;-58
2022/10/01 08:01:30;;;;;;;5.65;5.25;;;;;;;26.91;45.67;99815.69;5131461;27;20190;-58
2022/10/01 08:03:57;;;;;;;8.00;7.10;;;;;;;27.05;45.83;99831.28;5131574;27;20190;-59
2022/10/01 08:06:24;;;;;;;15.07;9.82;;;;;;;26.98;45.91;99831.00;5131831;27;20588;-58
2022/10/01 08:08:51;;;;;;;13.60;9.32;;;;;;;27.18;45.74;99839.84;5131618;27;20240;-58
2022/10/01 08:11:18;;;;;;;14.93;7.45;;;;;;;27.18;45.72;99839.84;5131567;27;20197;-58
2022/10/01 08:13:46;;;;;;;11.82;7.40;;;;;;;27.40;44.99;99836.00;5131624;27;20221;-54
2022/10/01 08:16:13;;;;;;;11.57;6.40;;;;;;;27.40;45.29;99842.19;5131387;27;20204;-56
2022/10/01 08:18:41;;;;;;;8.35;6.60;;;;;;;27.30;45.55;99832.53;5131370;27;20198;-55
2022/10/01 08:21:08;;;;;;;15.65;7.20;;;;;;;27.44;44.75;99826.72;5131574;27;20205;-55
2022/10/01 08:23:35;;;;;;;17.20;9.80;;;;;;;27.42;44.13;99824.22;5131391;27;20627;-56
2022/10/01 08:26:05;;;;;;;13.98;10.45;;;;;;;27.45;44.41;99810.59;5131466;27;20208;-57
2022/10/01 08:28:33;;;;;;;6.93;5.20;;;;;;;27.27;44.08;99816.81;5131110;27;20261;-55
2022/10/01 08:31:06;;;;;;;5.60;4.95;;;;;;;27.26;44.03;99805.31;5131151;27;20204;-56
2022/10/01 08:33:33;;;;;;;5.53;4.85;;;;;;;26.95;44.18;99801.16;5131274;27;20741;-56
2022/10/01 08:36:01;;;;;;;5.05;4.57;;;;;;;26.94;44.40;99791.47;5131361;27;20248;-56
2022/10/01 08:38:29;;;;;;;6.32;4.80;;;;;;;26.76;44.42;99785.97;5131085;27;20681;-56
2022/10/01 08:40:57;;;;;;;4.65;4.28;;;;;;;26.88;44.06;99778.69;5131007;27;20197;-55
2022/10/01 08:43:32;;;;;;;4.60;4.30;;;;;;;26.91;43.75;99763.25;5130634;27;20201;-57
2022/10/01 08:46:04;;;;;;;5.70;4.55;;;;;;;27.17;43.39;99771.53;5131181;27;20216;-57
2022/10/01 08:48:53;;;;;;;6.30;5.80;;;;;;;26.90;44.22;99772.22;5130848;27;20198;-56
2022/10/01 08:51:27;;;;;;;5.53;5.03;;;;;;;26.63;44.91;99767.63;5130748;27;20293;-56
2022/10/01 08:54:00;;;;;;;7.60;5.80;;;;;;;26.47;45.26;99778.00;5130628;27;20227;-55
2022/10/01 08:56:31;;;;;;;5.70;4.85;;;;;;;26.69;45.51;99785.72;5130658;27;20200;-55
2022/10/01 08:59:04;;;;;;;9.27;5.05;;;;;;;26.80;45.53;99778.56;5130351;27;20277;-55
2022/10/01 09:01:33;;;;;;;5.95;4.65;;;;;;;27.06;44.67;99791.19;5130656;27;20232;-56
2022/10/01 09:04:00;;;;;;;5.03;4.72;;;;;;;27.25;44.25;99806.28;5130769;27;20558;-57
2022/10/01 09:06:27;;;;;;;5.47;4.93;;;;;;;27.29;43.72;99783.72;5130325;27;20194;-58
2022/10/01 09:09:23;;;;;;;6.47;4.88;;;;;;;27.43;43.37;99790.38;5130819;27;20189;-58
2022/10/01 09:12:03;;;;;;;6.53;5.15;;;;;;;27.46;43.76;99774.94;5128728;27;20194;-58
2022/10/01 09:14:55;;;;;;;7.78;5.05;;;;;;;27.25;43.98;99766.31;5130568;27;20194;-58
2022/10/01 09:17:39;;;;;;;7.32;5.18;;;;;;;27.01;44.68;99784.59;5130321;27;20281;-57
2022/10/01 09:20:16;;;;;;;5.25;4.70;;;;;;;27.00;44.48;99790.91;5130548;27;20677;-57
2022/10/01 09:22:51;;;;;;;13.57;5.40;;;;;;;27.05;44.95;99786.84;5130468;27;20211;-57
2022/10/01 09:25:22;;;;;;;22.13;6.05;;;;;;;27.12;44.61;99797.75;5130446;27;20284;-57
2022/10/01 09:27:50;;;;;;;5.03;4.72;;;;;;;27.19;44.15;99804.22;5130521;27;20225;-57
2022/10/01 09:30:20;;;;;;;7.15;4.68;;;;;;;27.35;43.81;99796.44;5129817;27;20277;-58
2022/10/01 09:32:53;;;;;;;10.02;5.82;;;;;;;27.53;44.33;99790.38;5130186;28;20221;-58
2022/10/01 09:35:35;;;;;;;9.23;5.40;;;;;;;27.54;43.70;99797.41;5129713;28;20719;-58
2022/10/01 09:38:08;;;;;;;9.77;5.30;;;;;;;27.55;45.35;99791.03;5130425;28;20190;-58
2022/10/01 09:40:38;;;;;;;6.50;5.30;;;;;;;27.64;43.86;99791.06;5130020;28;20661;-57
2022/10/01 09:43:07;;;;;;;5.85;5.35;;;;;;;27.65;44.14;99784.72;5130245;28;20281;-57
2022/10/01 09:45:34;;;;;;;6.10;5.55;;;;;;;27.58;43.94;99788.97;5129195;28;20201;-57
2022/10/01 09:48:14;;;;;;;6.28;5.78;;;;;;;27.65;44.31;99799.91;5129845;28;20300;-57
2022/10/01 09:50:44;;;;;;;9.90;5.78;;;;;;;27.59;44.07;99797.81;5130126;28;20201;-58
2022/10/01 09:53:16;;;;;;;6.03;5.55;;;;;;;27.32;44.94;99803.88;5130025;28;20232;-58
2022/10/01 09:55:47;;;;;;;7.55;5.75;;;;;;;27.33;45.25;99790.41;5123033;28;20271;-58
2022/10/01 09:58:18;;;;;;;7.05;6.10;;;;;;;27.45;45.12;99773.25;5108110;28;20222;-58
2022/10/01 10:00:47;;;;;;;10.48;5.97;;;;;;;27.56;45.27;99763.44;5109367;28;20218;-58
2022/10/01 10:03:24;;;;;;;6.15;5.63;;;;;;;27.60;44.77;99762.16;5108280;28;20470;-57
2022/10/01 10:05:52;;;;;;;7.60;6.88;;;;;;;27.52;44.94;99776.19;5109106;28;20225;-58
2022/10/01 10:08:26;;;;;;;7.10;6.50;;;;;;;27.54;45.66;99808.06;5120034;28;20411;-57
2022/10/01 10:10:59;;;;;;;10.98;6.97;;;;;;;27.48;45.55;99791.63;5131061;27;20214;-57
2022/10/01 10:13:33;;;;;;;7.50;6.40;;;;;;;27.35;45.68;99791.13;5133267;27;20234;-57
2022/10/01 10:16:06;;;;;;;10.93;7.40;;;;;;;27.26;45.71;99804.47;5133475;27;20740;-58
2022/10/01 10:18:37;;;;;;;11.35;7.10;;;;;;;27.25;46.47;99838.28;5132986;27;20278;-57
2022/10/01 10:21:07;;;;;;;10.82;8.68;;;;;;;27.12;46.75;99832.41;5133320;27;20606;-56
2022/10/01 10:23:35;;;;;;;9.57;6.90;;;;;;;27.02;46.74;99834.22;5133135;27;20218;-56
2022/10/01 10:26:04;;;;;;;8.85;6.88;;;;;;;26.87;47.08;99846.25;5133120;27;20328;-55
2022/10/01 10:28:40;;;;;;;10.98;6.15;;;;;;;26.79;47.36;99848.78;5132836;27;20245;-57
2022/10/01 10:31:13;;;;;;;11.15;7.00;;;;;;;26.77;47.60;99840.91;5133149;27;20254;-57
2022/10/01 10:33:50;;;;;;;8.18;6.70;;;;;;;26.70;47.67;99840.66;5132477;27;20247;-55
2022/10/01 10:36:19;;;;;;;6.80;5.93;;;;;;;26.72;48.06;99849.34;5133263;27;20591;-56
2022/10/01 10:38:49;;;;;;;8.25;6.85;;;;;;;26.74;48.63;99855.38;5132933;27;20240;-58
2022/10/01 10:41:24;;;;;;;7.95;5.97;;;;;;;26.75;48.74;99866.84;5133088;27;20809;-59
2022/10/01 10:43:55;;;;;;;11.13;6.70;;;;;;;26.73;48.88;99872.34;5133382;27;20344;-58
2022/10/01 10:46:29;;;;;;;8.65;7.82;;;;;;;26.77;48.89;99872.88;5132949;27;20635;-54
2022/10/01 10:49:03;;;;;;;11.75;7.70;;;;;;;26.74;49.08;99879.34;5132543;27;20212;-54
2022/10/01 10:51:43;;;;;;;13.18;10.00;;;;;;;26.69;49.50;99878.91;5133038;27;20732;-54
2022/10/01 10:54:18;;;;;;;10.20;9.25;;;;;;;26.70;49.45;99851.31;5132577;27;20724;-59
2022/10/01 10:56:53;;;;;;;12.70;10.25;;;;;;;26.80;48.82;99845.97;5132687;27;20743;-57
2022/10/01 10:59:19;;;;;;;15.52;9.88;;;;;;;27.03;48.79;99846.56;5132606;27;20890;-57
2022/10/01 11:01:51;;;;;;;12.68;9.25;;;;;;;27.16;48.53;99860.44;5132287;27;20216;-57
2022/10/01 11:04:29;;;;;;;15.48;9.95;;;;;;;27.15;48.99;99871.25;5132181;27;20198;-57
2022/10/01 11:07:00;;;;;;;11.82;9.45;;;;;;;26.92;49.43;99862.66;5133147;27;20600;-53
2022/10/01 11:09:31;;;;;;;9.77;8.63;;;;;;;26.52;50.51;99855.63;5132361;27;20284;-52
2022/10/01 11:12:09;;;;;;;18.98;7.68;;;;;;;26.42;51.13;99873.38;5131405;27;20194;-53
2022/10/01 11:14:49;;;;;;;12.82;8.52;;;;;;;26.15;52.75;99911.22;5131626;27;20224;-53
2022/10/01 11:17:39;;;;;;;8.90;7.30;;;;;;;25.91;53.58;99884.94;5132349;27;20666;-52
2022/10/01 11:20:28;;;;;;;20.60;8.40;;;;;;;25.85;54.78;99877.47;5132589;27;20695;-57
2022/10/01 11:23:14;;;;;;;9.55;7.35;;;;;;;25.80;59.47;99850.44;5132632;27;20202;-56
2022/10/01 11:25:52;;;;;;;17.40;7.63;;;;;;;25.84;59.42;99827.94;5132882;27;20669;-57
2022/10/01 11:28:36;;;;;;;21.25;7.88;;;;;;;25.91;59.76;99799.81;5132068;27;20313;-58
2022/10/01 11:31:15;;;;;;;15.73;8.85;;;;;;;25.84;62.84;99781.88;5133018;27;20691;-57
2022/10/01 11:33:50;;;;;;;9.88;8.55;;;;;;;25.74;62.61;99791.63;5132542;27;20222;-57
2022/10/01 11:36:24;;;;;;;8.73;7.80;;;;;;;25.67;61.38;99801.97;5132389;27;20669;-57
2022/10/01 11:38:58;;;;;;;12.95;8.48;;;;;;;25.69;59.96;99776.09;5132705;27;20679;-56
2022/10/01 11:41:30;;;;;;;10.40;8.43;;;;;;;25.74;59.37;99773.84;5132445;27;20590;-58
2022/10/01 11:44:02;;;;;;;11.43;7.20;;;;;;;25.89;57.89;99775.19;5132629;27;20533;-57
2022/10/01 11:46:41;;;;;;;10.50;8.00;;;;;;;26.09;57.21;99775.22;5132284;27;20198;-57